sensor_id;sensor_type;location;lat;lon;timestamp;P1;durP1;ratioP1;P2;durP2;ratioP2
18146;SDS011;9199;48.832;9.182;2023-04-03T00:01:31;5.38;;;2.22;;
18146;SDS011;9199;48.832;9.182;2023-04-03T00:03:58;5.57;;;2.60;;
18146;SDS011;9199;48.832;9.182;2023-04-03T00:06:25;5.97;;;2.70;;
18146;SDS011;9199;48.832;9.182;2023-04-03T00:08:52;5.53;;;2.70;;
18146;SDS011;9199;48.832;9.182;2023-04-03T00:11:19;5.20;;;2.38;;
18146;SDS011;9199;48.832;9.182;2023-04-03T00:13:46;5.80;;;2.60;;
18146;SDS011;9199;48.832;9.182;2023-04-03T00:16:13;5.40;;;2.53;;
18146;SDS011;9199;48.832;9.182;2023-04-03T00:18:41;4.43;;;2.45;;
18146;SDS011;9199;48.832;9.182;2023-04-03T00:21:09;5.97;;;2.30;;
18146;SDS011;9199;48.832;9.182;2023-04-03T00:23:38;4.60;;;2.60;;
18146;SDS011;9199;48.832;9.182;2023-04-03T00:26:05;5.38;;;2.45;;
18146;SDS011;9199;48.832;9.182;2023-04-03T00:28:31;6.38;;;2.30;;
18146;SDS011;9199;48.832;9.182;2023-04-03T00:30:58;5.80;;;2.50;;
18146;SDS011;9199;48.832;9.182;2023-04-03T00:33:25;5.67;;;2.50;;
18146;SDS011;9199;48.832;9.182;2023-04-03T00:35:53;7.28;;;2.53;;
18146;SDS011;9199;48.832;9.182;2023-04-03T00:38:20;4.55;;;2.30;;
18146;SDS011;9199;48.832;9.182;2023-04-03T00:40:47;5.22;;;2.55;;
18146;SDS011;9199;48.832;9.182;2023-04-03T00:43:15;4.68;;;2.58;;
18146;SDS011;9199;48.832;9.182;2023-04-03T00:45:43;5.93;;;2.60;;
18146;SDS011;9199;48.832;9.182;2023-04-03T00:48:11;6.32;;;2.90;;
18146;SDS011;9199;48.832;9.182;2023-04-03T00:50:41;6.45;;;2.33;;
18146;SDS011;9199;48.832;9.182;2023-04-03T00:53:11;6.25;;;2.72;;
18146;SDS011;9199;48.832;9.182;2023-04-03T00:55:42;5.95;;;2.80;;
18146;SDS011;9199;48.832;9.182;2023-04-03T00:58:09;5.30;;;2.80;;
18146;SDS011;9199;48.832;9.182;2023-04-03T01:00:38;6.55;;;2.58;;
18146;SDS011;9199;48.832;9.182;2023-04-03T01:03:10;6.75;;;2.45;;
18146;SDS011;9199;48.832;9.182;2023-04-03T01:05:37;5.53;;;2.97;;
18146;SDS011;9199;48.832;9.182;2023-04-03T01:08:05;6.18;;;2.50;;
18146;SDS011;9199;48.832;9.182;2023-04-03T01:10:33;4.77;;;2.67;;
18146;SDS011;9199;48.832;9.182;2023-04-03T01:13:00;6.18;;;2.85;;
18146;SDS011;9199;48.832;9.182;2023-04-03T01:15:27;4.25;;;2.28;;
18146;SDS011;9199;48.832;9.182;2023-04-03T01:17:55;5.50;;;2.45;;
18146;SDS011;9199;48.832;9.182;2023-04-03T01:20:34;6.38;;;2.50;;
18146;SDS011;9199;48.832;9.182;2023-04-03T01:23:25;5.50;;;2.77;;
18146;SDS011;9199;48.832;9.182;2023-04-03T01:26:02;5.47;;;2.53;;
18146;SDS011;9199;48.832;9.182;2023-04-03T01:28:29;4.78;;;2.50;;
18146;SDS011;9199;48.832;9.182;2023-04-03T01:30:59;5.40;;;2.47;;
18146;SDS011;9199;48.832;9.182;2023-04-03T01:33:34;4.93;;;2.58;;
18146;SDS011;9199;48.832;9.182;2023-04-03T01:36:01;5.37;;;2.67;;
18146;SDS011;9199;48.832;9.182;2023-04-03T01:38:28;5.25;;;2.80;;
18146;SDS011;9199;48.832;9.182;2023-04-03T01:40:55;5.22;;;2.42;;
18146;SDS011;9199;48.832;9.182;2023-04-03T01:43:21;5.97;;;2.50;;
18146;SDS011;9199;48.832;9.182;2023-04-03T01:45:48;6.05;;;2.92;;
18146;SDS011;9199;48.832;9.182;2023-04-03T01:48:18;6.00;;;2.70;;
18146;SDS011;9199;48.832;9.182;2023-04-03T01:50:46;5.45;;;2.75;;
18146;SDS011;9199;48.832;9.182;2023-04-03T01:53:13;4.57;;;2.40;;
18146;SDS011;9199;48.832;9.182;2023-04-03T01:55:40;5.07;;;2.63;;
18146;SDS011;9199;48.832;9.182;2023-04-03T01:58:07;4.32;;;2.40;;
18146;SDS011;9199;48.832;9.182;2023-04-03T02:00:33;4.93;;;2.83;;
18146;SDS011;9199;48.832;9.182;2023-04-03T02:03:01;4.82;;;2.50;;
18146;SDS011;9199;48.832;9.182;2023-04-03T02:05:27;5.53;;;2.70;;
18146;SDS011;9199;48.832;9.182;2023-04-03T02:07:56;5.53;;;2.60;;
18146;SDS011;9199;48.832;9.182;2023-04-03T02:10:23;4.97;;;2.65;;
18146;SDS011;9199;48.832;9.182;2023-04-03T02:12:49;4.53;;;2.90;;
18146;SDS011;9199;48.832;9.182;2023-04-03T02:15:16;7.07;;;3.00;;
18146;SDS011;9199;48.832;9.182;2023-04-03T02:17:43;5.68;;;2.85;;
18146;SDS011;9199;48.832;9.182;2023-04-03T02:20:10;5.03;;;2.75;;
18146;SDS011;9199;48.832;9.182;2023-04-03T02:22:37;5.07;;;2.70;;
18146;SDS011;9199;48.832;9.182;2023-04-03T02:25:06;6.67;;;3.00;;
18146;SDS011;9199;48.832;9.182;2023-04-03T02:27:33;5.18;;;2.80;;
18146;SDS011;9199;48.832;9.182;2023-04-03T02:30:00;4.80;;;2.60;;
18146;SDS011;9199;48.832;9.182;2023-04-03T02:32:27;5.32;;;2.90;;
18146;SDS011;9199;48.832;9.182;2023-04-03T02:34:53;6.05;;;2.85;;
18146;SDS011;9199;48.832;9.182;2023-04-03T02:37:20;5.87;;;2.70;;
18146;SDS011;9199;48.832;9.182;2023-04-03T02:39:47;5.97;;;2.67;;
18146;SDS011;9199;48.832;9.182;2023-04-03T02:42:15;6.20;;;2.83;;
18146;SDS011;9199;48.832;9.182;2023-04-03T02:44:42;5.28;;;2.88;;
18146;SDS011;9199;48.832;9.182;2023-04-03T02:47:09;5.22;;;2.65;;
18146;SDS011;9199;48.832;9.182;2023-04-03T02:49:36;5.87;;;2.77;;
18146;SDS011;9199;48.832;9.182;2023-04-03T02:52:02;5.32;;;2.72;;
18146;SDS011;9199;48.832;9.182;2023-04-03T02:54:29;4.95;;;2.50;;
18146;SDS011;9199;48.832;9.182;2023-04-03T02:56:57;5.65;;;2.65;;
18146;SDS011;9199;48.832;9.182;2023-04-03T02:59:25;5.88;;;2.53;;
18146;SDS011;9199;48.832;9.182;2023-04-03T03:01:52;4.97;;;2.43;;
18146;SDS011;9199;48.832;9.182;2023-04-03T03:04:19;5.57;;;2.78;;
18146;SDS011;9199;48.832;9.182;2023-04-03T03:06:45;4.75;;;2.47;;
18146;SDS011;9199;48.832;9.182;2023-04-03T03:09:12;3.90;;;2.17;;
18146;SDS011;9199;48.832;9.182;2023-04-03T03:11:39;5.00;;;2.38;;
18146;SDS011;9199;48.832;9.182;2023-04-03T03:14:06;5.23;;;2.40;;
18146;SDS011;9199;48.832;9.182;2023-04-03T03:16:34;5.70;;;2.83;;
18146;SDS011;9199;48.832;9.182;2023-04-03T03:19:01;5.63;;;2.65;;
18146;SDS011;9199;48.832;9.182;2023-04-03T03:21:28;6.22;;;2.70;;
18146;SDS011;9199;48.832;9.182;2023-04-03T03:23:55;5.07;;;2.28;;
18146;SDS011;9199;48.832;9.182;2023-04-03T03:26:22;5.90;;;2.70;;
18146;SDS011;9199;48.832;9.182;2023-04-03T03:28:49;4.55;;;2.60;;
18146;SDS011;9199;48.832;9.182;2023-04-03T03:31:15;6.03;;;2.50;;
18146;SDS011;9199;48.832;9.182;2023-04-03T03:33:43;4.53;;;2.60;;
18146;SDS011;9199;48.832;9.182;2023-04-03T03:36:10;4.95;;;2.50;;
18146;SDS011;9199;48.832;9.182;2023-04-03T03:38:37;4.90;;;2.63;;
18146;SDS011;9199;48.832;9.182;2023-04-03T03:41:04;4.72;;;2.65;;
18146;SDS011;9199;48.832;9.182;2023-04-03T03:43:31;4.47;;;2.40;;
18146;SDS011;9199;48.832;9.182;2023-04-03T03:45:57;6.28;;;2.50;;
18146;SDS011;9199;48.832;9.182;2023-04-03T03:48:24;4.50;;;2.47;;
18146;SDS011;9199;48.832;9.182;2023-04-03T03:50:52;5.73;;;2.60;;
18146;SDS011;9199;48.832;9.182;2023-04-03T03:53:19;5.15;;;2.33;;
18146;SDS011;9199;48.832;9.182;2023-04-03T03:55:45;5.70;;;2.75;;
18146;SDS011;9199;48.832;9.182;2023-04-03T03:58:12;4.55;;;2.17;;
18146;SDS011;9199;48.832;9.182;2023-04-03T04:00:39;5.45;;;2.60;;
18146;SDS011;9199;48.832;9.182;2023-04-03T04:03:05;4.50;;;2.30;;
18146;SDS011;9199;48.832;9.182;2023-04-03T04:05:32;5.68;;;2.30;;
18146;SDS011;9199;48.832;9.182;2023-04-03T04:08:01;7.63;;;2.50;;
18146;SDS011;9199;48.832;9.182;2023-04-03T04:10:27;5.18;;;2.60;;
18146;SDS011;9199;48.832;9.182;2023-04-03T04:12:54;6.03;;;2.53;;
18146;SDS011;9199;48.832;9.182;2023-04-03T04:15:21;5.30;;;2.57;;
18146;SDS011;9199;48.832;9.182;2023-04-03T04:17:48;5.32;;;2.33;;
18146;SDS011;9199;48.832;9.182;2023-04-03T04:20:14;6.07;;;2.50;;
18146;SDS011;9199;48.832;9.182;2023-04-03T04:22:41;5.55;;;2.50;;
18146;SDS011;9199;48.832;9.182;2023-04-03T04:25:09;5.90;;;2.40;;
18146;SDS011;9199;48.832;9.182;2023-04-03T04:27:36;4.77;;;2.80;;
18146;SDS011;9199;48.832;9.182;2023-04-03T04:30:04;4.32;;;2.38;;
18146;SDS011;9199;48.832;9.182;2023-04-03T04:32:32;4.97;;;2.60;;
18146;SDS011;9199;48.832;9.182;2023-04-03T04:34:59;5.72;;;2.70;;
18146;SDS011;9199;48.832;9.182;2023-04-03T04:37:30;5.25;;;2.80;;
18146;SDS011;9199;48.832;9.182;2023-04-03T04:39:56;5.80;;;2.93;;
18146;SDS011;9199;48.832;9.182;2023-04-03T04:42:24;5.03;;;2.70;;
18146;SDS011;9199;48.832;9.182;2023-04-03T04:44:51;4.82;;;2.58;;
18146;SDS011;9199;48.832;9.182;2023-04-03T04:47:18;4.63;;;1.92;;
18146;SDS011;9199;48.832;9.182;2023-04-03T04:49:45;6.13;;;2.33;;
18146;SDS011;9199;48.832;9.182;2023-04-03T04:52:13;4.93;;;2.40;;
18146;SDS011;9199;48.832;9.182;2023-04-03T04:54:39;4.82;;;2.20;;
18146;SDS011;9199;48.832;9.182;2023-04-03T04:57:06;4.30;;;2.17;;
18146;SDS011;9199;48.832;9.182;2023-04-03T04:59:34;4.82;;;2.63;;
18146;SDS011;9199;48.832;9.182;2023-04-03T05:02:01;4.15;;;2.22;;
18146;SDS011;9199;48.832;9.182;2023-04-03T05:04:28;4.93;;;2.60;;
18146;SDS011;9199;48.832;9.182;2023-04-03T05:06:54;4.55;;;2.10;;
18146;SDS011;9199;48.832;9.182;2023-04-03T05:09:21;4.28;;;2.20;;
18146;SDS011;9199;48.832;9.182;2023-04-03T05:11:48;5.03;;;2.38;;
18146;SDS011;9199;48.832;9.182;2023-04-03T05:14:14;5.55;;;2.40;;
18146;SDS011;9199;48.832;9.182;2023-04-03T05:16:43;4.10;;;2.30;;
18146;SDS011;9199;48.832;9.182;2023-04-03T05:19:10;4.88;;;2.60;;
18146;SDS011;9199;48.832;9.182;2023-04-03T05:21:36;4.50;;;2.50;;
18146;SDS011;9199;48.832;9.182;2023-04-03T05:24:03;5.43;;;2.35;;
18146;SDS011;9199;48.832;9.182;2023-04-03T05:26:34;4.55;;;2.40;;
18146;SDS011;9199;48.832;9.182;2023-04-03T05:29:01;4.43;;;2.50;;
18146;SDS011;9199;48.832;9.182;2023-04-03T05:31:28;4.82;;;2.50;;
18146;SDS011;9199;48.832;9.182;2023-04-03T05:33:56;4.72;;;2.22;;
18146;SDS011;9199;48.832;9.182;2023-04-03T05:36:24;4.72;;;2.42;;
18146;SDS011;9199;48.832;9.182;2023-04-03T05:38:51;5.10;;;2.60;;
18146;SDS011;9199;48.832;9.182;2023-04-03T05:41:18;5.70;;;2.57;;
18146;SDS011;9199;48.832;9.182;2023-04-03T05:43:46;4.07;;;2.20;;
18146;SDS011;9199;48.832;9.182;2023-04-03T05:46:13;4.78;;;2.33;;
18146;SDS011;9199;48.832;9.182;2023-04-03T05:48:41;4.20;;;2.35;;
18146;SDS011;9199;48.832;9.182;2023-04-03T05:51:13;4.78;;;2.50;;
18146;SDS011;9199;48.832;9.182;2023-04-03T05:53:41;5.60;;;2.60;;
18146;SDS011;9199;48.832;9.182;2023-04-03T05:56:09;6.18;;;2.60;;
18146;SDS011;9199;48.832;9.182;2023-04-03T05:58:36;7.82;;;3.90;;
18146;SDS011;9199;48.832;9.182;2023-04-03T06:01:03;6.65;;;2.92;;
18146;SDS011;9199;48.832;9.182;2023-04-03T06:03:30;5.15;;;2.28;;
18146;SDS011;9199;48.832;9.182;2023-04-03T06:05:57;5.03;;;2.57;;
18146;SDS011;9199;48.832;9.182;2023-04-03T06:08:25;4.13;;;2.30;;
18146;SDS011;9199;48.832;9.182;2023-04-03T06:10:51;4.88;;;2.35;;
18146;SDS011;9199;48.832;9.182;2023-04-03T06:13:18;7.80;;;2.42;;
18146;SDS011;9199;48.832;9.182;2023-04-03T06:15:45;3.88;;;2.03;;
18146;SDS011;9199;48.832;9.182;2023-04-03T06:18:12;4.43;;;2.33;;
18146;SDS011;9199;48.832;9.182;2023-04-03T06:20:39;4.55;;;2.30;;
18146;SDS011;9199;48.832;9.182;2023-04-03T06:23:06;4.10;;;2.25;;
18146;SDS011;9199;48.832;9.182;2023-04-03T06:25:34;5.07;;;2.40;;
18146;SDS011;9199;48.832;9.182;2023-04-03T06:28:00;5.30;;;2.40;;
18146;SDS011;9199;48.832;9.182;2023-04-03T06:30:27;4.80;;;2.33;;
18146;SDS011;9199;48.832;9.182;2023-04-03T06:32:54;7.07;;;2.17;;
18146;SDS011;9199;48.832;9.182;2023-04-03T06:35:21;4.75;;;2.08;;
18146;SDS011;9199;48.832;9.182;2023-04-03T06:37:48;5.28;;;2.20;;
18146;SDS011;9199;48.832;9.182;2023-04-03T06:40:16;11.07;;;4.05;;
18146;SDS011;9199;48.832;9.182;2023-04-03T06:42:48;6.73;;;2.97;;
18146;SDS011;9199;48.832;9.182;2023-04-03T06:45:14;5.60;;;2.70;;
18146;SDS011;9199;48.832;9.182;2023-04-03T06:47:42;6.97;;;2.50;;
18146;SDS011;9199;48.832;9.182;2023-04-03T06:50:10;4.30;;;2.13;;
18146;SDS011;9199;48.832;9.182;2023-04-03T06:52:39;5.68;;;2.35;;
18146;SDS011;9199;48.832;9.182;2023-04-03T06:55:06;5.30;;;2.47;;
18146;SDS011;9199;48.832;9.182;2023-04-03T06:57:34;6.25;;;2.30;;
18146;SDS011;9199;48.832;9.182;2023-04-03T07:00:03;6.63;;;2.60;;
18146;SDS011;9199;48.832;9.182;2023-04-03T07:02:30;6.90;;;2.78;;
18146;SDS011;9199;48.832;9.182;2023-04-03T07:04:57;6.50;;;2.10;;
18146;SDS011;9199;48.832;9.182;2023-04-03T07:07:24;6.10;;;2.40;;
18146;SDS011;9199;48.832;9.182;2023-04-03T07:09:50;7.85;;;2.92;;
18146;SDS011;9199;48.832;9.182;2023-04-03T07:12:17;5.70;;;2.47;;
18146;SDS011;9199;48.832;9.182;2023-04-03T07:14:44;4.78;;;2.47;;
18146;SDS011;9199;48.832;9.182;2023-04-03T07:17:12;5.97;;;2.60;;
18146;SDS011;9199;48.832;9.182;2023-04-03T07:19:39;6.87;;;2.67;;
18146;SDS011;9199;48.832;9.182;2023-04-03T07:22:05;6.22;;;2.47;;
18146;SDS011;9199;48.832;9.182;2023-04-03T07:24:32;8.82;;;2.30;;
18146;SDS011;9199;48.832;9.182;2023-04-03T07:27:00;4.95;;;2.50;;
18146;SDS011;9199;48.832;9.182;2023-04-03T07:29:27;5.30;;;2.35;;
18146;SDS011;9199;48.832;9.182;2023-04-03T07:31:54;5.83;;;2.53;;
18146;SDS011;9199;48.832;9.182;2023-04-03T07:34:22;5.60;;;2.60;;
18146;SDS011;9199;48.832;9.182;2023-04-03T07:36:49;7.07;;;2.58;;
18146;SDS011;9199;48.832;9.182;2023-04-03T07:39:16;6.38;;;2.55;;
18146;SDS011;9199;48.832;9.182;2023-04-03T07:41:43;6.03;;;2.40;;
18146;SDS011;9199;48.832;9.182;2023-04-03T07:44:09;5.10;;;2.40;;
18146;SDS011;9199;48.832;9.182;2023-04-03T07:46:36;6.07;;;2.63;;
18146;SDS011;9199;48.832;9.182;2023-04-03T07:49:03;4.80;;;2.40;;
18146;SDS011;9199;48.832;9.182;2023-04-03T07:51:31;6.55;;;2.47;;
18146;SDS011;9199;48.832;9.182;2023-04-03T07:53:58;5.47;;;2.55;;
18146;SDS011;9199;48.832;9.182;2023-04-03T07:56:25;5.83;;;2.27;;
18146;SDS011;9199;48.832;9.182;2023-04-03T07:58:52;5.47;;;2.50;;
18146;SDS011;9199;48.832;9.182;2023-04-03T08:01:19;5.57;;;2.30;;
18146;SDS011;9199;48.832;9.182;2023-04-03T08:03:46;7.57;;;2.60;;
18146;SDS011;9199;48.832;9.182;2023-04-03T08:06:13;5.43;;;3.03;;
18146;SDS011;9199;48.832;9.182;2023-04-03T08:08:41;5.30;;;2.50;;
18146;SDS011;9199;48.832;9.182;2023-04-03T08:11:09;4.55;;;2.20;;
18146;SDS011;9199;48.832;9.182;2023-04-03T08:13:37;5.88;;;2.40;;
18146;SDS011;9199;48.832;9.182;2023-04-03T08:16:08;5.70;;;2.47;;
18146;SDS011;9199;48.832;9.182;2023-04-03T08:18:36;5.35;;;2.25;;
18146;SDS011;9199;48.832;9.182;2023-04-03T08:21:06;5.03;;;2.53;;
18146;SDS011;9199;48.832;9.182;2023-04-03T08:23:34;4.90;;;2.25;;
18146;SDS011;9199;48.832;9.182;2023-04-03T08:26:06;5.00;;;2.20;;
18146;SDS011;9199;48.832;9.182;2023-04-03T08:28:34;5.95;;;2.38;;
18146;SDS011;9199;48.832;9.182;2023-04-03T08:31:04;5.15;;;2.20;;
18146;SDS011;9199;48.832;9.182;2023-04-03T08:33:32;6.33;;;2.40;;
18146;SDS011;9199;48.832;9.182;2023-04-03T08:36:00;6.10;;;2.35;;
18146;SDS011;9199;48.832;9.182;2023-04-03T08:38:27;6.70;;;2.60;;
18146;SDS011;9199;48.832;9.182;2023-04-03T08:41:01;6.00;;;2.40;;
18146;SDS011;9199;48.832;9.182;2023-04-03T08:43:42;5.93;;;2.22;;
18146;SDS011;9199;48.832;9.182;2023-04-03T08:46:42;8.17;;;2.40;;
18146;SDS011;9199;48.832;9.182;2023-04-03T08:49:22;5.35;;;2.83;;
18146;SDS011;9199;48.832;9.182;2023-04-03T08:51:53;6.43;;;2.65;;
18146;SDS011;9199;48.832;9.182;2023-04-03T08:54:24;7.72;;;2.58;;
18146;SDS011;9199;48.832;9.182;2023-04-03T08:56:57;5.28;;;2.42;;
18146;SDS011;9199;48.832;9.182;2023-04-03T08:59:27;5.57;;;2.50;;
18146;SDS011;9199;48.832;9.182;2023-04-03T09:01:56;6.25;;;2.45;;
18146;SDS011;9199;48.832;9.182;2023-04-03T09:04:27;5.35;;;2.63;;
18146;SDS011;9199;48.832;9.182;2023-04-03T09:06:58;4.60;;;2.20;;
18146;SDS011;9199;48.832;9.182;2023-04-03T09:09:34;5.13;;;2.28;;
18146;SDS011;9199;48.832;9.182;2023-04-03T09:12:10;4.90;;;2.50;;
18146;SDS011;9199;48.832;9.182;2023-04-03T09:14:43;5.55;;;2.00;;
18146;SDS011;9199;48.832;9.182;2023-04-03T09:17:19;5.57;;;2.47;;
18146;SDS011;9199;48.832;9.182;2023-04-03T09:19:54;6.32;;;2.00;;
18146;SDS011;9199;48.832;9.182;2023-04-03T09:22:30;5.55;;;2.22;;
18146;SDS011;9199;48.832;9.182;2023-04-03T09:25:00;6.37;;;2.30;;
18146;SDS011;9199;48.832;9.182;2023-04-03T09:27:34;4.45;;;2.25;;
18146;SDS011;9199;48.832;9.182;2023-04-03T09:30:00;6.65;;;2.13;;
18146;SDS011;9199;48.832;9.182;2023-04-03T09:32:28;3.97;;;1.80;;
18146;SDS011;9199;48.832;9.182;2023-04-03T09:34:57;6.22;;;2.25;;
18146;SDS011;9199;48.832;9.182;2023-04-03T09:37:37;4.67;;;2.10;;
18146;SDS011;9199;48.832;9.182;2023-04-03T09:40:06;4.28;;;1.90;;
18146;SDS011;9199;48.832;9.182;2023-04-03T09:42:56;4.68;;;1.90;;
18146;SDS011;9199;48.832;9.182;2023-04-03T09:45:25;5.80;;;2.10;;
18146;SDS011;9199;48.832;9.182;2023-04-03T09:48:07;5.53;;;2.20;;
18146;SDS011;9199;48.832;9.182;2023-04-03T09:50:51;5.47;;;2.10;;
18146;SDS011;9199;48.832;9.182;2023-04-03T09:53:25;5.05;;;1.90;;
18146;SDS011;9199;48.832;9.182;2023-04-03T09:55:57;5.20;;;2.10;;
18146;SDS011;9199;48.832;9.182;2023-04-03T09:58:27;4.80;;;1.95;;
18146;SDS011;9199;48.832;9.182;2023-04-03T10:00:56;5.15;;;2.00;;
18146;SDS011;9199;48.832;9.182;2023-04-03T10:03:25;6.53;;;2.30;;
18146;SDS011;9199;48.832;9.182;2023-04-03T10:05:55;4.88;;;1.85;;
18146;SDS011;9199;48.832;9.182;2023-04-03T10:08:24;8.32;;;2.30;;
18146;SDS011;9199;48.832;9.182;2023-04-03T10:11:06;5.88;;;2.33;;
18146;SDS011;9199;48.832;9.182;2023-04-03T10:13:37;7.28;;;2.10;;
18146;SDS011;9199;48.832;9.182;2023-04-03T10:16:17;6.73;;;2.30;;
18146;SDS011;9199;48.832;9.182;2023-04-03T10:18:47;4.80;;;1.90;;
18146;SDS011;9199;48.832;9.182;2023-04-03T10:21:23;5.78;;;1.95;;
18146;SDS011;9199;48.832;9.182;2023-04-03T10:23:59;5.43;;;2.10;;
18146;SDS011;9199;48.832;9.182;2023-04-03T10:26:33;5.82;;;1.98;;
18146;SDS011;9199;48.832;9.182;2023-04-03T10:29:09;6.93;;;1.80;;
18146;SDS011;9199;48.832;9.182;2023-04-03T10:31:49;4.90;;;1.80;;
18146;SDS011;9199;48.832;9.182;2023-04-03T10:34:23;6.35;;;2.22;;
18146;SDS011;9199;48.832;9.182;2023-04-03T10:36:56;6.93;;;2.22;;
18146;SDS011;9199;48.832;9.182;2023-04-03T10:39:33;6.10;;;2.13;;
18146;SDS011;9199;48.832;9.182;2023-04-03T10:42:10;5.67;;;1.90;;
18146;SDS011;9199;48.832;9.182;2023-04-03T10:44:48;5.25;;;1.90;;
18146;SDS011;9199;48.832;9.182;2023-04-03T10:47:28;9.55;;;1.90;;
18146;SDS011;9199;48.832;9.182;2023-04-03T10:50:02;5.25;;;1.80;;
18146;SDS011;9199;48.832;9.182;2023-04-03T10:52:43;4.47;;;1.98;;
18146;SDS011;9199;48.832;9.182;2023-04-03T10:55:21;4.20;;;1.80;;
18146;SDS011;9199;48.832;9.182;2023-04-03T10:57:57;6.22;;;2.05;;
18146;SDS011;9199;48.832;9.182;2023-04-03T11:00:29;5.30;;;1.73;;
18146;SDS011;9199;48.832;9.182;2023-04-03T11:03:03;4.90;;;1.70;;
18146;SDS011;9199;48.832;9.182;2023-04-03T11:05:36;4.25;;;1.48;;
18146;SDS011;9199;48.832;9.182;2023-04-03T11:08:08;3.90;;;1.50;;
18146;SDS011;9199;48.832;9.182;2023-04-03T11:10:40;4.22;;;1.50;;
18146;SDS011;9199;48.832;9.182;2023-04-03T11:13:11;3.85;;;1.45;;
18146;SDS011;9199;48.832;9.182;2023-04-03T11:15:42;3.13;;;1.50;;
18146;SDS011;9199;48.832;9.182;2023-04-03T11:18:11;3.80;;;1.70;;
18146;SDS011;9199;48.832;9.182;2023-04-03T11:20:41;5.97;;;1.40;;
18146;SDS011;9199;48.832;9.182;2023-04-03T11:23:15;3.45;;;1.60;;
18146;SDS011;9199;48.832;9.182;2023-04-03T11:25:47;3.38;;;1.33;;
18146;SDS011;9199;48.832;9.182;2023-04-03T11:28:18;4.00;;;1.60;;
18146;SDS011;9199;48.832;9.182;2023-04-03T11:30:47;6.10;;;1.77;;
18146;SDS011;9199;48.832;9.182;2023-04-03T11:33:21;6.03;;;1.53;;
18146;SDS011;9199;48.832;9.182;2023-04-03T11:35:58;3.45;;;1.77;;
18146;SDS011;9199;48.832;9.182;2023-04-03T11:38:28;5.70;;;1.90;;
18146;SDS011;9199;48.832;9.182;2023-04-03T11:40:59;3.78;;;1.60;;
18146;SDS011;9199;48.832;9.182;2023-04-03T11:43:27;4.47;;;1.85;;
18146;SDS011;9199;48.832;9.182;2023-04-03T11:45:58;6.00;;;1.93;;
18146;SDS011;9199;48.832;9.182;2023-04-03T11:57:23;7.03;;;1.65;;
18146;SDS011;9199;48.832;9.182;2023-04-03T12:09:30;4.53;;;1.60;;
18146;SDS011;9199;48.832;9.182;2023-04-03T12:12:01;5.45;;;1.75;;
18146;SDS011;9199;48.832;9.182;2023-04-03T12:14:43;6.33;;;1.70;;
18146;SDS011;9199;48.832;9.182;2023-04-03T12:17:12;6.25;;;1.73;;
18146;SDS011;9199;48.832;9.182;2023-04-03T12:19:49;4.88;;;1.98;;
18146;SDS011;9199;48.832;9.182;2023-04-03T12:22:16;4.28;;;1.60;;
18146;SDS011;9199;48.832;9.182;2023-04-03T12:24:46;3.15;;;1.50;;
18146;SDS011;9199;48.832;9.182;2023-04-03T12:27:28;4.40;;;1.60;;
18146;SDS011;9199;48.832;9.182;2023-04-03T12:30:06;3.95;;;1.60;;
18146;SDS011;9199;48.832;9.182;2023-04-03T12:32:46;4.57;;;1.67;;
18146;SDS011;9199;48.832;9.182;2023-04-03T12:35:24;5.20;;;1.60;;
18146;SDS011;9199;48.832;9.182;2023-04-03T12:38:01;5.05;;;1.77;;
18146;SDS011;9199;48.832;9.182;2023-04-03T12:40:52;5.47;;;1.63;;
18146;SDS011;9199;48.832;9.182;2023-04-03T12:43:28;3.97;;;1.70;;
18146;SDS011;9199;48.832;9.182;2023-04-03T12:46:09;4.63;;;1.50;;
18146;SDS011;9199;48.832;9.182;2023-04-03T12:48:46;5.55;;;1.60;;
18146;SDS011;9199;48.832;9.182;2023-04-03T12:51:17;3.80;;;1.50;;
18146;SDS011;9199;48.832;9.182;2023-04-03T12:53:47;4.20;;;1.77;;
18146;SDS011;9199;48.832;9.182;2023-04-03T12:56:21;4.00;;;1.80;;
18146;SDS011;9199;48.832;9.182;2023-04-03T12:58:50;3.75;;;1.60;;
18146;SDS011;9199;48.832;9.182;2023-04-03T13:01:18;4.57;;;1.77;;
18146;SDS011;9199;48.832;9.182;2023-04-03T13:03:48;4.47;;;1.70;;
18146;SDS011;9199;48.832;9.182;2023-04-03T13:06:19;5.30;;;1.90;;
18146;SDS011;9199;48.832;9.182;2023-04-03T13:08:49;3.58;;;1.58;;
18146;SDS011;9199;48.832;9.182;2023-04-03T13:11:16;3.42;;;1.63;;
18146;SDS011;9199;48.832;9.182;2023-04-03T13:13:53;3.42;;;1.60;;
18146;SDS011;9199;48.832;9.182;2023-04-03T13:16:22;4.45;;;1.70;;
18146;SDS011;9199;48.832;9.182;2023-04-03T13:18:50;3.93;;;1.60;;
18146;SDS011;9199;48.832;9.182;2023-04-03T13:21:17;5.18;;;1.95;;
18146;SDS011;9199;48.832;9.182;2023-04-03T13:23:48;3.85;;;1.85;;
18146;SDS011;9199;48.832;9.182;2023-04-03T13:26:17;3.92;;;1.70;;
18146;SDS011;9199;48.832;9.182;2023-04-03T13:28:46;5.53;;;1.98;;
18146;SDS011;9199;48.832;9.182;2023-04-03T13:31:17;4.43;;;1.80;;
18146;SDS011;9199;48.832;9.182;2023-04-03T13:33:52;4.15;;;1.65;;
18146;SDS011;9199;48.832;9.182;2023-04-03T13:36:24;3.05;;;1.40;;
18146;SDS011;9199;48.832;9.182;2023-04-03T13:39:00;4.43;;;2.05;;
18146;SDS011;9199;48.832;9.182;2023-04-03T13:41:31;5.32;;;2.05;;
18146;SDS011;9199;48.832;9.182;2023-04-03T13:44:14;5.97;;;1.80;;
18146;SDS011;9199;48.832;9.182;2023-04-03T13:46:42;4.85;;;1.85;;
18146;SDS011;9199;48.832;9.182;2023-04-03T13:49:20;4.18;;;1.70;;
18146;SDS011;9199;48.832;9.182;2023-04-03T13:51:50;5.45;;;1.63;;
18146;SDS011;9199;48.832;9.182;2023-04-03T13:54:18;4.55;;;1.63;;
18146;SDS011;9199;48.832;9.182;2023-04-03T13:56:52;3.73;;;1.70;;
18146;SDS011;9199;48.832;9.182;2023-04-03T13:59:23;4.32;;;1.70;;
18146;SDS011;9199;48.832;9.182;2023-04-03T14:01:53;5.70;;;1.70;;
18146;SDS011;9199;48.832;9.182;2023-04-03T14:04:32;4.28;;;1.70;;
18146;SDS011;9199;48.832;9.182;2023-04-03T14:07:12;4.00;;;1.63;;
18146;SDS011;9199;48.832;9.182;2023-04-03T14:09:41;6.00;;;1.63;;
18146;SDS011;9199;48.832;9.182;2023-04-03T14:12:11;5.20;;;1.80;;
18146;SDS011;9199;48.832;9.182;2023-04-03T14:14:41;3.88;;;1.67;;
18146;SDS011;9199;48.832;9.182;2023-04-03T14:17:10;4.55;;;1.75;;
18146;SDS011;9199;48.832;9.182;2023-04-03T14:19:40;5.18;;;2.00;;
18146;SDS011;9199;48.832;9.182;2023-04-03T14:22:11;3.67;;;1.70;;
18146;SDS011;9199;48.832;9.182;2023-04-03T14:24:42;4.13;;;1.50;;
18146;SDS011;9199;48.832;9.182;2023-04-03T14:27:11;3.78;;;1.83;;
18146;SDS011;9199;48.832;9.182;2023-04-03T14:29:41;4.90;;;1.75;;
18146;SDS011;9199;48.832;9.182;2023-04-03T14:32:10;4.70;;;1.80;;
18146;SDS011;9199;48.832;9.182;2023-04-03T14:34:37;4.70;;;1.70;;
18146;SDS011;9199;48.832;9.182;2023-04-03T14:37:04;3.58;;;1.65;;
18146;SDS011;9199;48.832;9.182;2023-04-03T14:39:36;6.07;;;1.42;;
18146;SDS011;9199;48.832;9.182;2023-04-03T14:42:03;4.30;;;1.60;;
18146;SDS011;9199;48.832;9.182;2023-04-03T14:44:30;4.70;;;1.90;;
18146;SDS011;9199;48.832;9.182;2023-04-03T14:46:57;4.63;;;1.73;;
18146;SDS011;9199;48.832;9.182;2023-04-03T14:49:25;4.75;;;1.75;;
18146;SDS011;9199;48.832;9.182;2023-04-03T14:51:54;5.38;;;1.80;;
18146;SDS011;9199;48.832;9.182;2023-04-03T14:54:21;4.43;;;2.10;;
18146;SDS011;9199;48.832;9.182;2023-04-03T14:56:53;3.88;;;1.88;;
18146;SDS011;9199;48.832;9.182;2023-04-03T14:59:21;3.57;;;1.60;;
18146;SDS011;9199;48.832;9.182;2023-04-03T15:01:48;5.15;;;1.55;;
18146;SDS011;9199;48.832;9.182;2023-04-03T15:04:15;4.60;;;1.83;;
18146;SDS011;9199;48.832;9.182;2023-04-03T15:06:43;6.85;;;2.17;;
18146;SDS011;9199;48.832;9.182;2023-04-03T15:09:13;3.72;;;1.70;;
18146;SDS011;9199;48.832;9.182;2023-04-03T15:11:45;5.40;;;1.87;;
18146;SDS011;9199;48.832;9.182;2023-04-03T15:14:13;3.83;;;1.70;;
18146;SDS011;9199;48.832;9.182;2023-04-03T15:16:40;3.80;;;1.65;;
18146;SDS011;9199;48.832;9.182;2023-04-03T15:19:07;4.28;;;1.80;;
18146;SDS011;9199;48.832;9.182;2023-04-03T15:21:34;4.60;;;1.77;;
18146;SDS011;9199;48.832;9.182;2023-04-03T15:24:01;4.33;;;1.60;;
18146;SDS011;9199;48.832;9.182;2023-04-03T15:26:28;3.60;;;1.60;;
18146;SDS011;9199;48.832;9.182;2023-04-03T15:28:55;3.47;;;1.60;;
18146;SDS011;9199;48.832;9.182;2023-04-03T15:31:23;4.65;;;1.70;;
18146;SDS011;9199;48.832;9.182;2023-04-03T15:33:50;5.35;;;1.90;;